AAL904 KCLT-KMKE
Flight info
| Callsign | AAL904 |
|---|---|
| Flight time | 1h 46m |
| Altitude | 34000 |
| Route | JOJJO5 DOOGE FLM MACES VINNE BRAVE EXARR |
| Aircraft | A321/M-SDE3FGHIRWY/LB1 |
Departure
| Time | 2026-04-22 21:25 |
|---|---|
| Airport | Charlotte Douglas International Airport (KCLT) |
Arrival
| Time | 2026-04-22 23:11 |
|---|---|
| Airport | General Mitchell International Airport (KMKE) |
| Time | Latitude | Longitude | Altitude | Speed | Heading |
|---|---|---|---|---|---|
| 2026-04-22 20:59 | 35.21858 | -80.94184 | 733 ft | 0 kts | 253° |
| 2026-04-22 21:14 | 35.21860 | -80.94172 | 731 ft | 2 kts | 253° |
| 2026-04-22 21:14 | 35.21865 | -80.94153 | 731 ft | 2 kts | 253° |
| 2026-04-22 21:15 | 35.21870 | -80.94134 | 731 ft | 2 kts | 245° |
| 2026-04-22 21:15 | 35.21879 | -80.94117 | 731 ft | 2 kts | 212° |
| 2026-04-22 21:15 | 35.21893 | -80.94110 | 730 ft | 2 kts | 180° |
| 2026-04-22 21:15 | 35.21898 | -80.94109 | 731 ft | 0 kts | 172° |
| 2026-04-22 21:19 | 35.21897 | -80.94109 | 731 ft | 1 kts | 172° |
| 2026-04-22 21:20 | 35.21874 | -80.94105 | 732 ft | 5 kts | 172° |
| 2026-04-22 21:20 | 35.21838 | -80.94099 | 732 ft | 6 kts | 172° |
| 2026-04-22 21:20 | 35.21797 | -80.94091 | 732 ft | 6 kts | 171° |
| 2026-04-22 21:20 | 35.21754 | -80.94057 | 732 ft | 10 kts | 124° |
| 2026-04-22 21:21 | 35.21774 | -80.93984 | 732 ft | 10 kts | 45° |
| 2026-04-22 21:21 | 35.21824 | -80.93919 | 732 ft | 11 kts | 47° |
| 2026-04-22 21:21 | 35.21874 | -80.93850 | 732 ft | 11 kts | 49° |
| 2026-04-22 21:21 | 35.21926 | -80.93777 | 732 ft | 12 kts | 48° |
| 2026-04-22 21:22 | 35.21987 | -80.93715 | 733 ft | 12 kts | 15° |
| 2026-04-22 21:22 | 35.22070 | -80.93719 | 733 ft | 12 kts | 356° |
| 2026-04-22 21:22 | 35.22155 | -80.93725 | 733 ft | 12 kts | 356° |
| 2026-04-22 21:22 | 35.22243 | -80.93732 | 733 ft | 13 kts | 355° |
| 2026-04-22 21:23 | 35.22335 | -80.93741 | 733 ft | 14 kts | 355° |
| 2026-04-22 21:23 | 35.22431 | -80.93749 | 733 ft | 10 kts | 356° |
| 2026-04-22 21:23 | 35.22483 | -80.93746 | 734 ft | 6 kts | 23° |
| 2026-04-22 21:23 | 35.22502 | -80.93708 | 734 ft | 5 kts | 79° |
| 2026-04-22 21:24 | 35.22504 | -80.93669 | 735 ft | 4 kts | 94° |
| 2026-04-22 21:24 | 35.22492 | -80.93635 | 735 ft | 5 kts | 126° |
| 2026-04-22 21:24 | 35.22457 | -80.93614 | 736 ft | 7 kts | 174° |
| 2026-04-22 21:24 | 35.22306 | -80.93602 | 736 ft | 52 kts | 176° |
| 2026-04-22 21:25 | 35.21727 | -80.93551 | 735 ft | 115 kts | 176° |
| 2026-04-22 21:25 | 35.20732 | -80.93465 | 772 ft | 163 kts | 178° |
| 2026-04-22 21:25 | 35.19570 | -80.93323 | 1305 ft | 172 kts | 175° |
| 2026-04-22 21:25 | 35.18373 | -80.93083 | 2040 ft | 175 kts | 166° |
| 2026-04-22 21:26 | 35.17337 | -80.92301 | 2811 ft | 179 kts | 136° |
| 2026-04-22 21:26 | 35.16705 | -80.90960 | 3357 ft | 190 kts | 108° |
| 2026-04-22 21:26 | 35.16649 | -80.89288 | 3832 ft | 206 kts | 78° |
| 2026-04-22 21:26 | 35.17276 | -80.87690 | 4349 ft | 213 kts | 48° |
| 2026-04-22 21:27 | 35.18456 | -80.86630 | 4923 ft | 213 kts | 18° |
| 2026-04-22 21:27 | 35.19916 | -80.86164 | 5288 ft | 227 kts | 12° |
| 2026-04-22 21:27 | 35.21483 | -80.85563 | 5573 ft | 243 kts | 7° |
| 2026-04-22 21:27 | 35.23212 | -80.85752 | 5787 ft | 263 kts | 336° |
| 2026-04-22 21:28 | 35.24755 | -80.86962 | 6400 ft | 266 kts | 310° |
| 2026-04-22 21:28 | 35.25801 | -80.88821 | 7058 ft | 267 kts | 299° |
| 2026-04-22 21:28 | 35.26749 | -80.90786 | 7772 ft | 269 kts | 298° |
| 2026-04-22 21:28 | 35.27696 | -80.92767 | 8507 ft | 271 kts | 299° |
| 2026-04-22 21:29 | 35.28652 | -80.94772 | 9227 ft | 274 kts | 299° |
| 2026-04-22 21:29 | 35.29617 | -80.96792 | 9947 ft | 276 kts | 300° |
| 2026-04-22 21:29 | 35.30607 | -80.98862 | 10328 ft | 292 kts | 300° |
| 2026-04-22 21:29 | 35.31672 | -81.01086 | 10467 ft | 314 kts | 300° |
| 2026-04-22 21:30 | 35.32813 | -81.03468 | 10600 ft | 334 kts | 300° |
| 2026-04-22 21:30 | 35.34007 | -81.05958 | 11024 ft | 342 kts | 300° |
| 2026-04-22 21:30 | 35.35220 | -81.08484 | 11644 ft | 345 kts | 300° |
| 2026-04-22 21:30 | 35.36437 | -81.11026 | 12343 ft | 347 kts | 300° |
| 2026-04-22 21:31 | 35.37658 | -81.13581 | 13028 ft | 348 kts | 300° |
| 2026-04-22 21:31 | 35.38887 | -81.16152 | 13690 ft | 350 kts | 300° |
| 2026-04-22 21:31 | 35.40120 | -81.18740 | 14292 ft | 353 kts | 300° |
| 2026-04-22 21:31 | 35.41359 | -81.21346 | 14811 ft | 356 kts | 300° |
| 2026-04-22 21:32 | 35.42615 | -81.23988 | 15330 ft | 360 kts | 300° |
| 2026-04-22 21:32 | 35.43900 | -81.26691 | 15858 ft | 364 kts | 301° |
| 2026-04-22 21:32 | 35.45307 | -81.29287 | 16378 ft | 368 kts | 306° |
| 2026-04-22 21:32 | 35.46780 | -81.31825 | 16896 ft | 371 kts | 306° |
| 2026-04-22 21:33 | 35.48300 | -81.34460 | 17403 ft | 376 kts | 305° |
| 2026-04-22 21:33 | 35.49813 | -81.37092 | 17914 ft | 379 kts | 306° |
| 2026-04-22 21:33 | 35.51342 | -81.39747 | 18396 ft | 383 kts | 306° |
| 2026-04-22 21:33 | 35.52889 | -81.42434 | 18827 ft | 387 kts | 306° |
| 2026-04-22 21:34 | 35.54458 | -81.45134 | 19276 ft | 389 kts | 308° |
| 2026-04-22 21:34 | 35.56301 | -81.47576 | 19729 ft | 392 kts | 318° |
| 2026-04-22 21:34 | 35.58465 | -81.49629 | 20189 ft | 394 kts | 324° |
| 2026-04-22 21:34 | 35.60695 | -81.51608 | 20638 ft | 397 kts | 324° |
| 2026-04-22 21:35 | 35.62939 | -81.53609 | 21062 ft | 400 kts | 323° |
| 2026-04-22 21:35 | 35.65200 | -81.55622 | 21494 ft | 402 kts | 324° |
| 2026-04-22 21:35 | 35.67477 | -81.57627 | 21945 ft | 404 kts | 324° |
| 2026-04-22 21:35 | 35.69778 | -81.59636 | 22363 ft | 407 kts | 324° |
| 2026-04-22 21:36 | 35.72094 | -81.61650 | 22752 ft | 409 kts | 324° |
| 2026-04-22 21:36 | 35.74425 | -81.63679 | 23156 ft | 412 kts | 324° |
| 2026-04-22 21:36 | 35.76772 | -81.65727 | 23558 ft | 414 kts | 324° |
| 2026-04-22 21:36 | 35.79124 | -81.67785 | 23906 ft | 416 kts | 324° |
| 2026-04-22 21:37 | 35.81491 | -81.69861 | 24238 ft | 418 kts | 324° |
| 2026-04-22 21:37 | 35.83863 | -81.71948 | 24576 ft | 420 kts | 324° |
| 2026-04-22 21:37 | 35.86245 | -81.74045 | 24906 ft | 421 kts | 324° |
| 2026-04-22 21:37 | 35.88634 | -81.76150 | 25239 ft | 423 kts | 324° |
| 2026-04-22 21:38 | 35.91032 | -81.78265 | 25569 ft | 424 kts | 325° |
| 2026-04-22 21:38 | 35.93435 | -81.80387 | 25901 ft | 426 kts | 325° |
| 2026-04-22 21:38 | 35.95845 | -81.82515 | 26221 ft | 427 kts | 325° |
| 2026-04-22 21:38 | 35.98264 | -81.84654 | 26542 ft | 428 kts | 325° |
| 2026-04-22 21:39 | 36.00691 | -81.86797 | 26856 ft | 430 kts | 325° |
| 2026-04-22 21:39 | 36.03128 | -81.88948 | 27163 ft | 431 kts | 325° |
| 2026-04-22 21:39 | 36.05569 | -81.91102 | 27467 ft | 432 kts | 325° |
| 2026-04-22 21:39 | 36.08024 | -81.93271 | 27771 ft | 434 kts | 325° |
| 2026-04-22 21:40 | 36.10479 | -81.95447 | 28080 ft | 435 kts | 325° |
| 2026-04-22 21:40 | 36.12944 | -81.97637 | 28376 ft | 437 kts | 326° |
| 2026-04-22 21:40 | 36.15419 | -81.99833 | 28686 ft | 438 kts | 326° |
| 2026-04-22 21:40 | 36.17903 | -82.02037 | 28990 ft | 440 kts | 326° |
| 2026-04-22 21:41 | 36.20390 | -82.04248 | 29354 ft | 439 kts | 326° |
| 2026-04-22 21:41 | 36.22866 | -82.06452 | 29761 ft | 438 kts | 326° |
| 2026-04-22 21:41 | 36.25366 | -82.08676 | 30179 ft | 436 kts | 326° |
| 2026-04-22 21:41 | 36.27827 | -82.10861 | 30518 ft | 435 kts | 326° |
| 2026-04-22 21:42 | 36.30282 | -82.13042 | 30828 ft | 434 kts | 326° |
| 2026-04-22 21:42 | 36.32734 | -82.15226 | 31147 ft | 433 kts | 326° |
| 2026-04-22 21:42 | 36.35180 | -82.17406 | 31472 ft | 432 kts | 326° |
| 2026-04-22 21:42 | 36.37617 | -82.19580 | 31786 ft | 432 kts | 326° |
| 2026-04-22 21:43 | 36.40055 | -82.21759 | 32094 ft | 431 kts | 326° |
| 2026-04-22 21:43 | 36.42485 | -82.23934 | 32398 ft | 430 kts | 326° |
| 2026-04-22 21:43 | 36.44912 | -82.26111 | 32710 ft | 430 kts | 326° |
| 2026-04-22 21:43 | 36.47331 | -82.28284 | 33014 ft | 429 kts | 326° |
| 2026-04-22 21:44 | 36.49747 | -82.30457 | 33322 ft | 428 kts | 326° |
| 2026-04-22 21:44 | 36.52158 | -82.32628 | 33625 ft | 427 kts | 326° |
| 2026-04-22 21:44 | 36.54560 | -82.34791 | 33922 ft | 427 kts | 326° |
| 2026-04-22 21:44 | 36.56963 | -82.36956 | 34118 ft | 426 kts | 326° |
| 2026-04-22 21:45 | 36.61757 | -82.41265 | 34149 ft | 424 kts | 326° |
| 2026-04-22 21:45 | 36.66531 | -82.45561 | 34140 ft | 424 kts | 326° |
| 2026-04-22 21:46 | 36.71307 | -82.49877 | 34135 ft | 424 kts | 326° |
| 2026-04-22 21:46 | 36.76074 | -82.54200 | 34149 ft | 424 kts | 325° |
| 2026-04-22 21:47 | 36.80843 | -82.58526 | 34160 ft | 424 kts | 325° |
| 2026-04-22 21:47 | 36.85616 | -82.62851 | 34174 ft | 424 kts | 325° |
| 2026-04-22 21:48 | 36.90420 | -82.67209 | 34175 ft | 424 kts | 325° |
| 2026-04-22 21:48 | 36.95188 | -82.71558 | 34176 ft | 424 kts | 325° |
| 2026-04-22 21:49 | 36.99953 | -82.75919 | 34175 ft | 424 kts | 325° |
| 2026-04-22 21:49 | 37.04720 | -82.80273 | 34162 ft | 424 kts | 325° |
| 2026-04-22 21:50 | 37.08673 | -82.83888 | 34153 ft | 424 kts | 325° |
| 2026-04-22 21:50 | 37.13426 | -82.88255 | 34137 ft | 423 kts | 325° |
| 2026-04-22 21:51 | 37.18170 | -82.92628 | 34126 ft | 423 kts | 325° |
| 2026-04-22 21:52 | 37.25298 | -82.99177 | 34132 ft | 423 kts | 325° |
| 2026-04-22 21:52 | 37.30039 | -83.03553 | 34133 ft | 423 kts | 324° |
| 2026-04-22 21:53 | 37.34777 | -83.07938 | 34139 ft | 423 kts | 324° |
| 2026-04-22 21:53 | 37.39523 | -83.12325 | 34141 ft | 423 kts | 324° |
| 2026-04-22 21:54 | 37.44296 | -83.16747 | 34148 ft | 423 kts | 324° |
| 2026-04-22 21:54 | 37.49039 | -83.21155 | 34146 ft | 424 kts | 324° |
| 2026-04-22 21:55 | 37.53785 | -83.25567 | 34145 ft | 424 kts | 324° |
| 2026-04-22 21:55 | 37.58530 | -83.29989 | 34143 ft | 424 kts | 324° |
| 2026-04-22 21:56 | 37.63278 | -83.34413 | 34146 ft | 424 kts | 324° |
| 2026-04-22 21:56 | 37.68024 | -83.38849 | 34144 ft | 424 kts | 324° |
| 2026-04-22 21:57 | 37.72764 | -83.43296 | 34138 ft | 424 kts | 324° |
| 2026-04-22 21:57 | 37.77506 | -83.47738 | 34134 ft | 424 kts | 324° |
| 2026-04-22 21:58 | 37.82248 | -83.52185 | 34122 ft | 424 kts | 324° |
| 2026-04-22 21:58 | 37.86981 | -83.56629 | 34116 ft | 424 kts | 324° |
| 2026-04-22 21:59 | 37.91702 | -83.61086 | 34117 ft | 423 kts | 323° |
| 2026-04-22 21:59 | 37.96427 | -83.65552 | 34116 ft | 424 kts | 323° |
| 2026-04-22 22:00 | 38.01151 | -83.70016 | 34120 ft | 424 kts | 323° |
| 2026-04-22 22:00 | 38.05909 | -83.74518 | 34128 ft | 424 kts | 323° |
| 2026-04-22 22:01 | 38.10626 | -83.78990 | 34129 ft | 423 kts | 323° |
| 2026-04-22 22:01 | 38.15339 | -83.83477 | 34129 ft | 423 kts | 323° |
| 2026-04-22 22:02 | 38.20059 | -83.87961 | 34124 ft | 423 kts | 323° |
| 2026-04-22 22:02 | 38.24769 | -83.92446 | 34121 ft | 423 kts | 323° |
| 2026-04-22 22:03 | 38.29476 | -83.96942 | 34113 ft | 423 kts | 323° |
| 2026-04-22 22:03 | 38.34188 | -84.01455 | 34107 ft | 423 kts | 323° |
| 2026-04-22 22:04 | 38.38895 | -84.05964 | 34101 ft | 423 kts | 323° |
| 2026-04-22 22:04 | 38.43602 | -84.10477 | 34084 ft | 423 kts | 323° |
| 2026-04-22 22:05 | 38.48289 | -84.14986 | 34082 ft | 422 kts | 323° |
| 2026-04-22 22:05 | 38.52973 | -84.19492 | 34078 ft | 421 kts | 323° |
| 2026-04-22 22:06 | 38.57656 | -84.24004 | 34074 ft | 422 kts | 323° |
| 2026-04-22 22:06 | 38.62333 | -84.28517 | 34078 ft | 421 kts | 323° |
| 2026-04-22 22:07 | 38.66521 | -84.33735 | 34074 ft | 422 kts | 307° |
| 2026-04-22 22:07 | 38.70022 | -84.39783 | 34082 ft | 423 kts | 307° |
| 2026-04-22 22:08 | 38.73531 | -84.45827 | 34084 ft | 423 kts | 307° |
| 2026-04-22 22:08 | 38.77062 | -84.51909 | 34085 ft | 423 kts | 307° |
| 2026-04-22 22:09 | 38.80563 | -84.57958 | 34085 ft | 422 kts | 307° |
| 2026-04-22 22:09 | 38.84054 | -84.64015 | 34079 ft | 422 kts | 307° |
| 2026-04-22 22:10 | 38.87542 | -84.70067 | 34073 ft | 422 kts | 307° |
| 2026-04-22 22:10 | 38.91032 | -84.76122 | 34075 ft | 422 kts | 307° |
| 2026-04-22 22:11 | 38.94512 | -84.82185 | 34077 ft | 422 kts | 307° |
| 2026-04-22 22:11 | 38.97990 | -84.88255 | 34076 ft | 422 kts | 307° |
| 2026-04-22 22:12 | 39.01466 | -84.94325 | 34076 ft | 422 kts | 307° |
| 2026-04-22 22:12 | 39.04939 | -85.00403 | 34073 ft | 422 kts | 307° |
| 2026-04-22 22:13 | 39.08400 | -85.06493 | 34067 ft | 421 kts | 307° |
| 2026-04-22 22:13 | 39.11858 | -85.12578 | 34066 ft | 421 kts | 307° |
| 2026-04-22 22:14 | 39.15319 | -85.18662 | 34066 ft | 421 kts | 307° |
| 2026-04-22 22:14 | 39.18772 | -85.24760 | 34069 ft | 421 kts | 307° |
| 2026-04-22 22:15 | 39.22219 | -85.30866 | 34069 ft | 421 kts | 307° |
| 2026-04-22 22:15 | 39.25689 | -85.37011 | 34074 ft | 421 kts | 307° |
| 2026-04-22 22:16 | 39.29132 | -85.43117 | 34072 ft | 421 kts | 307° |
| 2026-04-22 22:16 | 39.32568 | -85.49225 | 34069 ft | 420 kts | 307° |
| 2026-04-22 22:17 | 39.35995 | -85.55336 | 34065 ft | 420 kts | 307° |
| 2026-04-22 22:17 | 39.39422 | -85.61454 | 34051 ft | 420 kts | 307° |
| 2026-04-22 22:18 | 39.42844 | -85.67571 | 34048 ft | 420 kts | 307° |
| 2026-04-22 22:18 | 39.46256 | -85.73695 | 34050 ft | 419 kts | 307° |
| 2026-04-22 22:19 | 39.49665 | -85.79827 | 34052 ft | 419 kts | 307° |
| 2026-04-22 22:19 | 39.53072 | -85.85947 | 34053 ft | 419 kts | 307° |
| 2026-04-22 22:20 | 39.56478 | -85.92074 | 34055 ft | 419 kts | 307° |
| 2026-04-22 22:20 | 39.59877 | -85.98211 | 34066 ft | 419 kts | 307° |
| 2026-04-22 22:21 | 39.63269 | -86.04351 | 34066 ft | 419 kts | 307° |
| 2026-04-22 22:21 | 39.66654 | -86.10496 | 34069 ft | 419 kts | 307° |
| 2026-04-22 22:22 | 39.70036 | -86.16647 | 34066 ft | 418 kts | 307° |
| 2026-04-22 22:22 | 39.73416 | -86.22798 | 34058 ft | 418 kts | 307° |
| 2026-04-22 22:23 | 39.76813 | -86.28996 | 34056 ft | 418 kts | 307° |
| 2026-04-22 22:23 | 39.79617 | -86.34112 | 34060 ft | 418 kts | 307° |
| 2026-04-22 22:24 | 39.82984 | -86.40270 | 34060 ft | 418 kts | 307° |
| 2026-04-22 22:24 | 39.86346 | -86.46436 | 34058 ft | 418 kts | 307° |
| 2026-04-22 22:25 | 39.89702 | -86.52604 | 34053 ft | 417 kts | 307° |
| 2026-04-22 22:25 | 39.93055 | -86.58776 | 34052 ft | 417 kts | 307° |
| 2026-04-22 22:26 | 39.95293 | -86.62905 | 34056 ft | 417 kts | 307° |
| 2026-04-22 22:26 | 39.96251 | -86.64613 | 34019 ft | 411 kts | 313° |
| 2026-04-22 22:27 | 39.99967 | -86.70069 | 33895 ft | 397 kts | 321° |
| 2026-04-22 22:27 | 40.04207 | -86.74664 | 33884 ft | 400 kts | 328° |
| 2026-04-22 22:28 | 40.08972 | -86.78545 | 34023 ft | 407 kts | 334° |
| 2026-04-22 22:28 | 40.11520 | -86.80195 | 34130 ft | 410 kts | 338° |
| 2026-04-22 22:28 | 40.14166 | -86.81639 | 34254 ft | 412 kts | 341° |
| 2026-04-22 22:28 | 40.16879 | -86.82862 | 34370 ft | 413 kts | 339° |
| 2026-04-22 22:29 | 40.19668 | -86.83840 | 34261 ft | 415 kts | 347° |
| 2026-04-22 22:29 | 40.22555 | -86.84463 | 34040 ft | 415 kts | 349° |
| 2026-04-22 22:29 | 40.25408 | -86.85004 | 34011 ft | 415 kts | 348° |
| 2026-04-22 22:30 | 40.31084 | -86.86506 | 34019 ft | 416 kts | 343° |
| 2026-04-22 22:30 | 40.36645 | -86.88594 | 34022 ft | 415 kts | 341° |
| 2026-04-22 22:31 | 40.42169 | -86.90835 | 34022 ft | 415 kts | 341° |
| 2026-04-22 22:31 | 40.47712 | -86.92991 | 34017 ft | 416 kts | 342° |
| 2026-04-22 22:32 | 40.53275 | -86.95097 | 34028 ft | 416 kts | 342° |
| 2026-04-22 22:32 | 40.58840 | -86.97196 | 34031 ft | 416 kts | 342° |
| 2026-04-22 22:33 | 40.64412 | -86.99304 | 34026 ft | 416 kts | 342° |
| 2026-04-22 22:33 | 40.69978 | -87.01421 | 34021 ft | 417 kts | 341° |
| 2026-04-22 22:34 | 40.75548 | -87.03553 | 34023 ft | 417 kts | 341° |
| 2026-04-22 22:34 | 40.81116 | -87.05688 | 34027 ft | 417 kts | 341° |
| 2026-04-22 22:35 | 40.86686 | -87.07824 | 34031 ft | 417 kts | 341° |
| 2026-04-22 22:35 | 40.92259 | -87.09968 | 34031 ft | 417 kts | 341° |
| 2026-04-22 22:36 | 40.97835 | -87.12114 | 34029 ft | 418 kts | 341° |
| 2026-04-22 22:36 | 41.03420 | -87.14259 | 34028 ft | 418 kts | 342° |
| 2026-04-22 22:37 | 41.09232 | -87.15453 | 34018 ft | 422 kts | 352° |
| 2026-04-22 22:37 | 41.15082 | -87.16140 | 34017 ft | 422 kts | 352° |
| 2026-04-22 22:38 | 41.20942 | -87.16832 | 34011 ft | 423 kts | 352° |
| 2026-04-22 22:38 | 41.26804 | -87.17528 | 34016 ft | 423 kts | 352° |
| 2026-04-22 22:39 | 41.32642 | -87.18220 | 34021 ft | 423 kts | 352° |
| 2026-04-22 22:39 | 41.38539 | -87.18931 | 34035 ft | 423 kts | 352° |
| 2026-04-22 22:40 | 41.44403 | -87.19635 | 34044 ft | 423 kts | 352° |
| 2026-04-22 22:40 | 41.50262 | -87.20335 | 34055 ft | 423 kts | 352° |
| 2026-04-22 22:41 | 41.56115 | -87.21037 | 34049 ft | 422 kts | 352° |
| 2026-04-22 22:41 | 41.61962 | -87.21738 | 34062 ft | 422 kts | 352° |
| 2026-04-22 22:42 | 41.67803 | -87.22444 | 34063 ft | 421 kts | 352° |
| 2026-04-22 22:42 | 41.73640 | -87.23143 | 34065 ft | 421 kts | 352° |
| 2026-04-22 22:43 | 41.79477 | -87.23840 | 34066 ft | 421 kts | 351° |
| 2026-04-22 22:43 | 41.85309 | -87.24547 | 33651 ft | 423 kts | 351° |
| 2026-04-22 22:43 | 41.88281 | -87.24912 | 32480 ft | 434 kts | 351° |
| 2026-04-22 22:44 | 41.91315 | -87.25287 | 31411 ft | 442 kts | 351° |
| 2026-04-22 22:44 | 41.94427 | -87.25669 | 30783 ft | 440 kts | 352° |
| 2026-04-22 22:44 | 41.97461 | -87.26032 | 30283 ft | 436 kts | 352° |
| 2026-04-22 22:44 | 42.00473 | -87.26394 | 29706 ft | 432 kts | 351° |
| 2026-04-22 22:45 | 42.03358 | -87.27304 | 29093 ft | 423 kts | 335° |
| 2026-04-22 22:45 | 42.05845 | -87.29318 | 28496 ft | 415 kts | 318° |
| 2026-04-22 22:45 | 42.07807 | -87.32123 | 27921 ft | 410 kts | 310° |
| 2026-04-22 22:45 | 42.09626 | -87.35060 | 27334 ft | 407 kts | 309° |
| 2026-04-22 22:46 | 42.11420 | -87.37985 | 26783 ft | 404 kts | 309° |
| 2026-04-22 22:46 | 42.13197 | -87.40888 | 26232 ft | 400 kts | 309° |
| 2026-04-22 22:46 | 42.14963 | -87.43776 | 25697 ft | 397 kts | 309° |
| 2026-04-22 22:46 | 42.16713 | -87.46638 | 25165 ft | 394 kts | 309° |
| 2026-04-22 22:47 | 42.18449 | -87.49479 | 24649 ft | 391 kts | 309° |
| 2026-04-22 22:47 | 42.20168 | -87.52296 | 24135 ft | 388 kts | 309° |
| 2026-04-22 22:47 | 42.21883 | -87.55105 | 23631 ft | 386 kts | 309° |
| 2026-04-22 22:47 | 42.23586 | -87.57895 | 23044 ft | 384 kts | 309° |
| 2026-04-22 22:48 | 42.25281 | -87.60666 | 22451 ft | 382 kts | 309° |
| 2026-04-22 22:48 | 42.26971 | -87.63425 | 21875 ft | 380 kts | 309° |
| 2026-04-22 22:48 | 42.28657 | -87.66170 | 21307 ft | 379 kts | 309° |
| 2026-04-22 22:48 | 42.30340 | -87.68903 | 20762 ft | 378 kts | 310° |
| 2026-04-22 22:49 | 42.32018 | -87.71625 | 20214 ft | 377 kts | 310° |
| 2026-04-22 22:49 | 42.33693 | -87.74336 | 19666 ft | 376 kts | 310° |
| 2026-04-22 22:49 | 42.35369 | -87.77043 | 19155 ft | 375 kts | 310° |
| 2026-04-22 22:49 | 42.37039 | -87.79737 | 18642 ft | 373 kts | 310° |
| 2026-04-22 22:50 | 42.38708 | -87.82422 | 18105 ft | 372 kts | 310° |
| 2026-04-22 22:50 | 42.40374 | -87.85093 | 17516 ft | 370 kts | 310° |
| 2026-04-22 22:50 | 42.42035 | -87.87741 | 16949 ft | 369 kts | 310° |
| 2026-04-22 22:50 | 42.43684 | -87.90358 | 16652 ft | 359 kts | 310° |
| 2026-04-22 22:51 | 42.45277 | -87.92877 | 16520 ft | 345 kts | 310° |
| 2026-04-22 22:51 | 42.46811 | -87.95298 | 16382 ft | 332 kts | 310° |
| 2026-04-22 22:51 | 42.48288 | -87.97624 | 16268 ft | 319 kts | 310° |
| 2026-04-22 22:51 | 42.49712 | -87.99858 | 16147 ft | 307 kts | 310° |
| 2026-04-22 22:52 | 42.51085 | -88.02004 | 16018 ft | 296 kts | 310° |
| 2026-04-22 22:52 | 42.52425 | -88.04094 | 15894 ft | 285 kts | 310° |
| 2026-04-22 22:52 | 42.53707 | -88.06084 | 15764 ft | 275 kts | 310° |
| 2026-04-22 22:52 | 42.54947 | -88.07997 | 15646 ft | 265 kts | 310° |
| 2026-04-22 22:53 | 42.56146 | -88.09843 | 15465 ft | 258 kts | 310° |
| 2026-04-22 22:53 | 42.57329 | -88.11656 | 15175 ft | 255 kts | 310° |
| 2026-04-22 22:53 | 42.58507 | -88.13451 | 14870 ft | 254 kts | 310° |
| 2026-04-22 22:53 | 42.59677 | -88.15229 | 14556 ft | 252 kts | 310° |
| 2026-04-22 22:54 | 42.61016 | -88.16744 | 14243 ft | 254 kts | 332° |
| 2026-04-22 22:54 | 42.62761 | -88.17233 | 13918 ft | 263 kts | 356° |
| 2026-04-22 22:54 | 42.64555 | -88.17006 | 13557 ft | 267 kts | 1° |
| 2026-04-22 22:54 | 42.66393 | -88.16660 | 13214 ft | 266 kts | 2° |
| 2026-04-22 22:55 | 42.68224 | -88.16308 | 12875 ft | 265 kts | 2° |
| 2026-04-22 22:55 | 42.70045 | -88.15965 | 12558 ft | 263 kts | 2° |
| 2026-04-22 22:55 | 42.73657 | -88.15312 | 11938 ft | 259 kts | 359° |
| 2026-04-22 22:56 | 42.75434 | -88.15498 | 11408 ft | 260 kts | 343° |
| 2026-04-22 22:56 | 42.77244 | -88.16055 | 10724 ft | 273 kts | 343° |
| 2026-04-22 22:56 | 42.79140 | -88.16659 | 10020 ft | 286 kts | 344° |
| 2026-04-22 22:56 | 42.81125 | -88.17275 | 9218 ft | 299 kts | 348° |
| 2026-04-22 22:57 | 42.82517 | -88.17430 | 8672 ft | 309 kts | 359° |
| 2026-04-22 22:57 | 42.84664 | -88.16957 | 7815 ft | 314 kts | 16° |
| 2026-04-22 22:57 | 42.86625 | -88.15617 | 7002 ft | 311 kts | 33° |
| 2026-04-22 22:57 | 42.88166 | -88.13584 | 6206 ft | 308 kts | 51° |
| 2026-04-22 22:58 | 42.89186 | -88.11038 | 5387 ft | 306 kts | 68° |
| 2026-04-22 22:58 | 42.89860 | -88.08306 | 4589 ft | 302 kts | 70° |
| 2026-04-22 22:58 | 42.90524 | -88.05593 | 3813 ft | 300 kts | 70° |
| 2026-04-22 22:58 | 42.91186 | -88.02898 | 3023 ft | 300 kts | 71° |
| 2026-04-22 22:59 | 42.91845 | -88.00212 | 2300 ft | 296 kts | 71° |
| 2026-04-22 22:59 | 42.92486 | -87.97594 | 1800 ft | 284 kts | 71° |
| 2026-04-22 22:59 | 42.93109 | -87.95044 | 1758 ft | 297 kts | 70° |
| 2026-04-22 22:59 | 42.93873 | -87.92274 | 2303 ft | 324 kts | 66° |
| 2026-04-22 23:00 | 42.94762 | -87.89333 | 2782 ft | 338 kts | 64° |
| 2026-04-22 23:00 | 42.95940 | -87.86699 | 2972 ft | 312 kts | 49° |
| 2026-04-22 23:00 | 42.97506 | -87.84834 | 3002 ft | 290 kts | 25° |
| 2026-04-22 23:00 | 42.99355 | -87.84138 | 3003 ft | 266 kts | 357° |
| 2026-04-22 23:01 | 43.01102 | -87.84547 | 3006 ft | 246 kts | 341° |
| 2026-04-22 23:01 | 43.02686 | -87.85221 | 3007 ft | 235 kts | 339° |
| 2026-04-22 23:01 | 43.04236 | -87.85920 | 3012 ft | 234 kts | 336° |
| 2026-04-22 23:01 | 43.05533 | -87.87155 | 3011 ft | 227 kts | 306° |
| 2026-04-22 23:02 | 43.06394 | -87.88967 | 3023 ft | 228 kts | 297° |
| 2026-04-22 23:02 | 43.07160 | -87.90857 | 3017 ft | 227 kts | 295° |
| 2026-04-22 23:02 | 43.07540 | -87.92913 | 3019 ft | 225 kts | 265° |
| 2026-04-22 23:02 | 43.07138 | -87.94949 | 3034 ft | 216 kts | 248° |
| 2026-04-22 23:03 | 43.06553 | -87.96751 | 3014 ft | 199 kts | 246° |
| 2026-04-22 23:03 | 43.05985 | -87.98402 | 3008 ft | 186 kts | 246° |
| 2026-04-22 23:03 | 43.05438 | -87.99975 | 3040 ft | 182 kts | 246° |
| 2026-04-22 23:03 | 43.04900 | -88.01530 | 3025 ft | 180 kts | 246° |
| 2026-04-22 23:04 | 43.04365 | -88.03082 | 3025 ft | 181 kts | 246° |
| 2026-04-22 23:04 | 43.03828 | -88.04630 | 3014 ft | 181 kts | 246° |
| 2026-04-22 23:04 | 43.03290 | -88.06182 | 3016 ft | 180 kts | 246° |
| 2026-04-22 23:04 | 43.02747 | -88.07728 | 3017 ft | 181 kts | 245° |
| 2026-04-22 23:05 | 43.02206 | -88.09282 | 2860 ft | 177 kts | 246° |
| 2026-04-22 23:05 | 43.01678 | -88.10778 | 2705 ft | 174 kts | 245° |
| 2026-04-22 23:05 | 43.01158 | -88.12278 | 2710 ft | 176 kts | 246° |
| 2026-04-22 23:05 | 43.00630 | -88.13781 | 2707 ft | 176 kts | 245° |
| 2026-04-22 23:06 | 42.99948 | -88.15155 | 2700 ft | 178 kts | 220° |
| 2026-04-22 23:06 | 42.98760 | -88.15660 | 2720 ft | 185 kts | 184° |
| 2026-04-22 23:06 | 42.97460 | -88.15484 | 2712 ft | 189 kts | 174° |
| 2026-04-22 23:06 | 42.96169 | -88.15195 | 2710 ft | 188 kts | 175° |
| 2026-04-22 23:07 | 42.94884 | -88.14884 | 2711 ft | 188 kts | 174° |
| 2026-04-22 23:07 | 42.93602 | -88.14569 | 2709 ft | 186 kts | 173° |
| 2026-04-22 23:07 | 42.92332 | -88.14256 | 2710 ft | 185 kts | 174° |
| 2026-04-22 23:07 | 42.91183 | -88.13491 | 2704 ft | 191 kts | 136° |
| 2026-04-22 23:08 | 42.90599 | -88.11868 | 2715 ft | 195 kts | 103° |
| 2026-04-22 23:08 | 42.90402 | -88.10038 | 2712 ft | 195 kts | 97° |
| 2026-04-22 23:08 | 42.90270 | -88.08194 | 2703 ft | 197 kts | 96° |
| 2026-04-22 23:08 | 42.90144 | -88.06327 | 2714 ft | 198 kts | 96° |
| 2026-04-22 23:09 | 42.90326 | -88.04498 | 2713 ft | 196 kts | 67° |
| 2026-04-22 23:09 | 42.90927 | -88.02808 | 2714 ft | 195 kts | 60° |
| 2026-04-22 23:09 | 42.91555 | -88.01243 | 2743 ft | 182 kts | 58° |
| 2026-04-22 23:09 | 42.92103 | -87.99764 | 2568 ft | 168 kts | 66° |
| 2026-04-22 23:10 | 42.92405 | -87.98255 | 2209 ft | 164 kts | 77° |
| 2026-04-22 23:10 | 42.92688 | -87.96733 | 1897 ft | 166 kts | 73° |
| 2026-04-22 23:10 | 42.93045 | -87.95249 | 1545 ft | 160 kts | 68° |
| 2026-04-22 23:10 | 42.93405 | -87.93863 | 1192 ft | 150 kts | 69° |
| 2026-04-22 23:11 | 42.93707 | -87.92562 | 884 ft | 140 kts | 70° |
| 2026-04-22 23:11 | 42.94010 | -87.91329 | 696 ft | 131 kts | 68° |
| 2026-04-22 23:11 | 42.94267 | -87.90310 | 686 ft | 89 kts | 71° |
| 2026-04-22 23:11 | 42.94350 | -87.89981 | 685 ft | 18 kts | 59° |
| 2026-04-22 23:12 | 42.94447 | -87.89958 | 686 ft | 12 kts | 353° |
| 2026-04-22 23:12 | 42.94474 | -87.89964 | 684 ft | 0 kts | 351° |
| 2026-04-22 23:12 | 42.94477 | -87.89965 | 684 ft | 1 kts | 351° |
| 2026-04-22 23:12 | 42.94490 | -87.89966 | 685 ft | 3 kts | 358° |
| 2026-04-22 23:13 | 42.94525 | -87.89954 | 684 ft | 7 kts | 28° |
| 2026-04-22 23:13 | 42.94554 | -87.89898 | 687 ft | 8 kts | 61° |
| 2026-04-22 23:13 | 42.94583 | -87.89826 | 687 ft | 9 kts | 61° |
| 2026-04-22 23:13 | 42.94625 | -87.89750 | 682 ft | 10 kts | 33° |
| 2026-04-22 23:14 | 42.94700 | -87.89728 | 683 ft | 12 kts | 6° |
| 2026-04-22 23:14 | 42.94786 | -87.89715 | 682 ft | 13 kts | 6° |
| 2026-04-22 23:14 | 42.94881 | -87.89705 | 684 ft | 14 kts | 3° |
| 2026-04-22 23:14 | 42.94970 | -87.89757 | 688 ft | 15 kts | 315° |
| 2026-04-22 23:15 | 42.95061 | -87.89835 | 685 ft | 16 kts | 328° |
| 2026-04-22 23:15 | 42.95141 | -87.89946 | 683 ft | 13 kts | 311° |
| 2026-04-22 23:15 | 42.95202 | -87.90047 | 684 ft | 10 kts | 301° |
| 2026-04-22 23:15 | 42.95184 | -87.90133 | 683 ft | 11 kts | 227° |
| 2026-04-22 23:16 | 42.95130 | -87.90195 | 685 ft | 6 kts | 208° |
| 2026-04-22 23:16 | 42.95094 | -87.90175 | 688 ft | 6 kts | 126° |
| 2026-04-22 23:16 | 42.95083 | -87.90147 | 686 ft | 0 kts | 118° |
| 2026-04-22 23:16 | 42.95080 | -87.90142 | 686 ft | 3 kts | 122° |
| 2026-04-22 23:17 | 42.95080 | -87.90141 | 686 ft | 0 kts | 122° |